createdAt,value
2022-11-29T00:02:17.413Z,100330.78
2022-11-29T00:06:21.804Z,100340.59
2022-11-29T00:10:23.297Z,100338.16
2022-11-29T00:14:26.448Z,100337.16
2022-11-29T00:18:28.036Z,100332.75
2022-11-29T00:22:30.057Z,100332.59
2022-11-29T00:26:31.591Z,100328.34
2022-11-29T00:30:33.907Z,100329.00
2022-11-29T00:34:35.597Z,100324.44
2022-11-29T00:38:37.466Z,100317.34
2022-11-29T00:42:38.972Z,100322.69
2022-11-29T00:46:42.044Z,100320.72
2022-11-29T00:50:43.604Z,100322.69
2022-11-29T00:54:45.314Z,100328.41
2022-11-29T00:58:48.461Z,100320.47
2022-11-29T01:02:50.179Z,100325.88
2022-11-29T01:06:53.032Z,100326.56
2022-11-29T01:11:02.792Z,100319.69
2022-11-29T01:15:07.138Z,100331.69
2022-11-29T01:19:08.740Z,100326.38
2022-11-29T01:23:10.246Z,100334.22
2022-11-29T01:27:11.818Z,100330.06
2022-11-29T01:31:21.512Z,100332.59
2022-11-29T01:35:23.132Z,100335.09
2022-11-29T01:39:24.744Z,100336.19
2022-11-29T01:43:26.756Z,100334.56
2022-11-29T01:47:29.234Z,100330.91
2022-11-29T01:51:32.655Z,100334.34
2022-11-29T01:55:38.608Z,100339.75
2022-11-29T01:59:48.415Z,100330.72
2022-11-29T02:03:50.118Z,100331.69
2022-11-29T02:07:55.101Z,100335.81
2022-11-29T02:12:14.907Z,100342.91
2022-11-29T02:16:23.536Z,100338.81
2022-11-29T02:20:40.341Z,100337.19
2022-11-29T02:24:55.596Z,100342.78
2022-11-29T02:29:34.041Z,100353.88
2022-11-29T02:34:09.388Z,100351.38
2022-11-29T02:39:01.147Z,100351.63
2022-11-29T02:43:24.632Z,100364.13
2022-11-29T02:47:37.410Z,100360.81
2022-11-29T02:51:48.032Z,100354.72
2022-11-29T02:56:12.832Z,100356.94
2022-11-29T03:00:19.157Z,100365.69
2022-11-29T03:04:23.709Z,100370.09
2022-11-29T03:08:29.728Z,100363.53
2022-11-29T03:12:40.268Z,100373.81
2022-11-29T03:17:05.613Z,100374.81
2022-11-29T03:21:20.369Z,100380.19
2022-11-29T03:25:29.191Z,100380.00
2022-11-29T03:29:40.494Z,100368.00
2022-11-29T03:33:52.530Z,100384.75
2022-11-29T03:38:15.132Z,100387.97
2022-11-29T03:42:59.827Z,100384.66
2022-11-29T03:47:08.234Z,100388.06
2022-11-29T03:51:26.374Z,100399.69
2022-11-29T03:55:53.023Z,100395.28
2022-11-29T04:00:10.165Z,100397.91
2022-11-29T04:04:32.516Z,100394.34
2022-11-29T04:09:12.605Z,100403.38
2022-11-29T04:13:34.136Z,100397.41
2022-11-29T04:18:15.392Z,100401.78
2022-11-29T04:22:43.278Z,100398.06
2022-11-29T04:27:14.339Z,100397.25
2022-11-29T04:31:25.076Z,100406.13
2022-11-29T04:35:56.392Z,100418.06
2022-11-29T04:40:12.646Z,100418.88
2022-11-29T04:44:51.864Z,100412.81
2022-11-29T04:49:22.182Z,100424.59
2022-11-29T04:53:42.102Z,100428.81
2022-11-29T04:57:56.019Z,100419.91
2022-11-29T05:02:07.204Z,100430.50
2022-11-29T05:06:32.639Z,100430.41
2022-11-29T05:10:44.839Z,100436.63
2022-11-29T05:15:04.850Z,100434.00
2022-11-29T05:19:34.373Z,100439.25
2022-11-29T05:24:03.366Z,100442.63
2022-11-29T05:28:26.873Z,100447.84
2022-11-29T05:32:45.466Z,100440.69
2022-11-29T05:37:06.758Z,100454.94
2022-11-29T05:41:23.597Z,100445.47
2022-11-29T05:45:46.953Z,100455.06
2022-11-29T05:50:07.493Z,100455.28
2022-11-29T05:54:25.393Z,100471.16
2022-11-29T05:58:45.300Z,100453.78
2022-11-29T06:02:58.370Z,100466.75
2022-11-29T06:07:19.873Z,100466.81
2022-11-29T06:11:30.901Z,100466.59
2022-11-29T06:16:02.713Z,100480.78
2022-11-29T06:20:28.359Z,100483.53
2022-11-29T06:24:52.827Z,100490.41
2022-11-29T06:29:13.096Z,100490.41
2022-11-29T06:33:25.353Z,100499.25
2022-11-29T06:37:33.819Z,100498.38
2022-11-29T06:41:35.707Z,100508.88
2022-11-29T06:45:37.587Z,100508.00
2022-11-29T06:49:46.820Z,100513.88
2022-11-29T06:54:07.290Z,100513.28
2022-11-29T06:58:37.783Z,100515.22
2022-11-29T07:03:04.340Z,100515.22
2022-11-29T07:07:19.496Z,100518.84
2022-11-29T07:11:43.253Z,100523.09
2022-11-29T07:16:15.872Z,100519.31
2022-11-29T07:20:23.779Z,100532.94
2022-11-29T07:24:44.520Z,100531.13
2022-11-29T07:29:16.726Z,100539.06
2022-11-29T07:33:38.535Z,100541.44
2022-11-29T07:37:53.393Z,100544.13
2022-11-29T07:42:22.728Z,100541.44
2022-11-29T07:46:25.678Z,100551.66
2022-11-29T07:50:29.037Z,100557.94
2022-11-29T07:54:31.087Z,100562.19
2022-11-29T07:58:33.094Z,100561.84
2022-11-29T08:02:34.902Z,100567.59
2022-11-29T08:06:37.284Z,100568.72
2022-11-29T08:10:39.180Z,100566.81
2022-11-29T08:14:40.666Z,100569.19
2022-11-29T08:18:42.215Z,100570.66
2022-11-29T08:22:43.944Z,100576.56
2022-11-29T08:26:45.568Z,100568.59
2022-11-29T08:30:47.020Z,100565.63
2022-11-29T08:34:48.608Z,100573.25
2022-11-29T08:38:52.849Z,100571.38
2022-11-29T08:42:58.881Z,100575.19
2022-11-29T08:47:18.789Z,100578.56
2022-11-29T08:51:20.554Z,100580.03
2022-11-29T08:55:25.195Z,100572.06
2022-11-29T08:59:27.067Z,100588.63
2022-11-29T09:03:47.284Z,100589.19
2022-11-29T09:07:49.101Z,100593.78
2022-11-29T09:11:50.726Z,100601.28
2022-11-29T09:15:52.298Z,100602.59
2022-11-29T09:19:54.048Z,100606.72
2022-11-29T09:23:59.213Z,100615.22
2022-11-29T09:28:02.867Z,100614.13
2022-11-29T09:32:05.006Z,100611.97
2022-11-29T09:36:08.696Z,100605.56
2022-11-29T09:40:25.172Z,100598.47
2022-11-29T09:44:46.064Z,100610.66
2022-11-29T09:49:07.566Z,100622.31
2022-11-29T09:53:29.728Z,100614.44
2022-11-29T09:57:31.475Z,100618.84
2022-11-29T10:01:39.973Z,100618.84
2022-11-29T10:05:47.369Z,100608.25
2022-11-29T10:09:56.411Z,100605.72
2022-11-29T10:14:08.074Z,100618.00
2022-11-29T10:18:25.474Z,100611.78
2022-11-29T10:22:40.723Z,100614.25
2022-11-29T10:26:43.588Z,100636.28
2022-11-29T10:30:45.710Z,100613.09
2022-11-29T10:34:49.710Z,100610.22
2022-11-29T10:38:53.756Z,100607.56
2022-11-29T10:42:56.837Z,100606.72
2022-11-29T10:47:05.438Z,100608.88
2022-11-29T10:51:17.352Z,100614.25
2022-11-29T10:55:22.284Z,100617.66
2022-11-29T10:59:27.461Z,100618.25
2022-11-29T11:03:52.847Z,100612.97
2022-11-29T11:07:58.805Z,100618.38
2022-11-29T11:12:04.041Z,100616.28
2022-11-29T11:16:19.506Z,100617.38
2022-11-29T11:20:23.915Z,100628.00
2022-11-29T11:24:29.845Z,100620.16
2022-11-29T11:28:43.581Z,100643.53
2022-11-29T11:33:22.930Z,100626.00
2022-11-29T11:37:30.156Z,100620.81
2022-11-29T11:41:54.231Z,100619.84
2022-11-29T11:46:00.142Z,100627.69
2022-11-29T11:50:04.686Z,100633.22
2022-11-29T11:54:14.753Z,100630.31
2022-11-29T11:58:21.784Z,100623.50
2022-11-29T12:02:37.524Z,100622.91
2022-11-29T12:07:04.236Z,100626.47
2022-11-29T12:11:10.260Z,100643.69
2022-11-29T12:15:20.164Z,100645.00
2022-11-29T12:19:32.260Z,100639.25
2022-11-29T12:23:57.609Z,100635.44
2022-11-29T12:27:59.296Z,100640.22
2022-11-29T12:32:40.103Z,100647.41
2022-11-29T12:36:49.704Z,100637.16
2022-11-29T12:41:06.526Z,100642.66
2022-11-29T12:45:23.434Z,100651.28
2022-11-29T12:49:34.669Z,100653.66
2022-11-29T12:54:09.349Z,100653.78
2022-11-29T12:58:18.576Z,100653.94
2022-11-29T13:02:48.544Z,100667.13
2022-11-29T13:06:56.471Z,100665.03
2022-11-29T13:11:03.893Z,100659.50
2022-11-29T13:15:14.781Z,100656.19
2022-11-29T13:19:29.154Z,100661.56
2022-11-29T13:28:32.198Z,100678.63
2022-11-29T13:32:51.725Z,100682.25
2022-11-29T13:37:23.358Z,100683.47
2022-11-29T13:41:36.113Z,100683.44
2022-11-29T13:45:47.362Z,100690.66
2022-11-29T13:50:02.478Z,100691.94
2022-11-29T13:54:28.615Z,100680.63
2022-11-29T13:58:37.452Z,100687.81
2022-11-29T14:02:39.174Z,100698.34
2022-11-29T14:06:41.339Z,100689.28
2022-11-29T14:10:49.081Z,100703.50
2022-11-29T14:14:50.716Z,100705.06
2022-11-29T14:19:08.320Z,100693.75
2022-11-29T14:23:16.665Z,100700.63
2022-11-29T14:27:21.527Z,100705.13
2022-11-29T14:31:52.090Z,100713.19
2022-11-29T14:36:12.584Z,100702.19
2022-11-29T14:40:42.244Z,100706.59
2022-11-29T14:44:52.805Z,100702.78
2022-11-29T14:48:54.397Z,100701.31
2022-11-29T14:52:56.087Z,100710.22
2022-11-29T14:56:58.074Z,100717.44
2022-11-29T15:01:09.659Z,100720.06
2022-11-29T15:05:54.453Z,100715.00
2022-11-29T15:09:58.382Z,100719.34
2022-11-29T15:25:54.818Z,100733.56
2022-11-29T15:29:56.512Z,100740.63
2022-11-29T15:33:59.072Z,100747.97
2022-11-29T15:38:01.395Z,100754.16
2022-11-29T15:42:08.407Z,100756.78
2022-11-29T15:46:19.706Z,100762.25
2022-11-29T15:50:33.041Z,100754.50
2022-11-29T15:54:39.921Z,100763.94
2022-11-29T15:59:14.863Z,100772.91
2022-11-29T16:03:25.199Z,100771.06
2022-11-29T16:07:32.445Z,100769.38
2022-11-29T16:11:50.816Z,100771.69
2022-11-29T16:16:15.765Z,100782.47
2022-11-29T16:20:31.702Z,100788.72
2022-11-29T16:24:34.872Z,100780.66
2022-11-29T16:28:54.114Z,100788.72
2022-11-29T16:32:59.883Z,100782.63
2022-11-29T16:37:34.689Z,100797.53
2022-11-29T16:41:38.598Z,100796.63
2022-11-29T16:46:20.402Z,100808.03
2022-11-29T16:50:25.441Z,100810.59
2022-11-29T16:55:17.075Z,100809.78
2022-11-29T16:59:27.389Z,100807.94
2022-11-29T17:03:29.592Z,100814.75
2022-11-29T17:07:41.658Z,100812.28
2022-11-29T17:11:43.605Z,100821.91
2022-11-29T17:15:45.385Z,100827.22
2022-11-29T17:19:46.937Z,100824.63
2022-11-29T17:23:48.692Z,100834.31
2022-11-29T17:27:50.156Z,100830.84
2022-11-29T17:32:42.377Z,100829.91
2022-11-29T17:36:45.768Z,100821.88
2022-11-29T17:41:23.219Z,100834.22
2022-11-29T17:45:24.989Z,100837.75
2022-11-29T17:49:26.557Z,100846.69
2022-11-29T17:53:28.198Z,100852.00
2022-11-29T17:58:04.331Z,100851.28
2022-11-29T18:02:55.894Z,100852.03
2022-11-29T18:06:58.899Z,100858.84
2022-11-29T18:11:08.181Z,100856.00
2022-11-29T18:15:09.856Z,100855.28
2022-11-29T18:19:16.859Z,100855.19
2022-11-29T18:23:18.854Z,100856.16
2022-11-29T18:27:21.508Z,100856.25
2022-11-29T18:31:28.168Z,100859.16
2022-11-29T18:35:29.857Z,100864.09
2022-11-29T18:40:23.018Z,100862.28
2022-11-29T18:44:29.298Z,100864.03
2022-11-29T18:48:31.046Z,100863.16
2022-11-29T18:53:22.871Z,100858.00
2022-11-29T19:08:48.308Z,100871.25
2022-11-29T19:12:49.933Z,100876.38
2022-11-29T19:16:54.506Z,100886.19
2022-11-29T19:21:10.750Z,100883.56
2022-11-29T19:29:28.916Z,100884.59
2022-11-29T19:33:57.015Z,100882.91
2022-11-29T19:38:15.644Z,100884.78
2022-11-29T19:48:08.781Z,100891.97
2022-11-29T19:52:10.414Z,100891.09
2022-11-29T19:56:14.460Z,100895.50
2022-11-29T20:01:51.512Z,100899.03
2022-11-29T20:05:55.550Z,100891.31
2022-11-29T20:10:36.886Z,100909.84
2022-11-29T20:15:01.084Z,100902.91
2022-11-29T20:19:13.523Z,100915.34
2022-11-29T20:23:41.173Z,100927.50
2022-11-29T20:28:33.746Z,100930.09
2022-11-29T20:32:37.218Z,100925.84
2022-11-29T20:37:08.565Z,100921.38
2022-11-29T20:41:43.943Z,100923.38
2022-11-29T20:45:46.678Z,100919.31
2022-11-29T20:49:49.601Z,100920.38
2022-11-29T20:53:55.667Z,100924.78
2022-11-29T20:58:26.480Z,100938.06
2022-11-29T21:03:02.411Z,100926.78
2022-11-29T21:07:03.946Z,100929.63
2022-11-29T21:11:10.144Z,100940.31
2022-11-29T21:15:16.941Z,100938.53
2022-11-29T21:19:23.812Z,100931.00
2022-11-29T21:23:35.037Z,100932.00
2022-11-29T21:27:37.359Z,100935.44
2022-11-29T21:31:42.757Z,100932.13
2022-11-29T21:36:15.504Z,100936.53
2022-11-29T21:40:17.427Z,100947.00
2022-11-29T21:44:18.993Z,100949.53
2022-11-29T21:49:10.904Z,100953.38
2022-11-29T21:53:12.463Z,100946.28
2022-11-29T21:57:48.239Z,100946.94
2022-11-29T22:01:53.700Z,100953.75
2022-11-29T22:06:30.632Z,100948.41
2022-11-29T22:10:33.042Z,100943.34
2022-11-29T22:14:36.130Z,100941.16
2022-11-29T22:18:38.155Z,100947.56
2022-11-29T22:22:39.655Z,100945.84
2022-11-29T22:26:43.605Z,100954.22
2022-11-29T22:30:45.407Z,100947.38
2022-11-29T22:34:47.224Z,100951.88
2022-11-29T22:38:48.862Z,100949.09
2022-11-29T22:42:52.054Z,100941.94
2022-11-29T22:46:53.778Z,100949.06
2022-11-29T22:51:05.577Z,100952.59
2022-11-29T22:55:07.482Z,100952.56
2022-11-29T22:59:42.884Z,100946.53
2022-11-29T23:04:34.810Z,100951.13
2022-11-29T23:08:37.875Z,100951.31
2022-11-29T23:12:39.717Z,100955.84
2022-11-29T23:16:43.813Z,100957.81
2022-11-29T23:20:45.315Z,100966.59
2022-11-29T23:24:47.037Z,100965.72
2022-11-29T23:28:56.334Z,100965.78
2022-11-29T23:32:58.043Z,100970.97
2022-11-29T23:36:59.630Z,100958.72
2022-11-29T23:41:01.453Z,100958.72
2022-11-29T23:45:03.438Z,100959.66
2022-11-29T23:50:18.964Z,100961.47
2022-11-29T23:55:12.111Z,100958.88
